createdAt,value
2022-10-08T00:01:27.152Z,96831.53
2022-10-08T00:03:57.520Z,96832.25
2022-10-08T00:06:27.144Z,96839.81
2022-10-08T00:08:57.474Z,96845.88
2022-10-08T00:11:27.494Z,96844.94
2022-10-08T00:13:56.411Z,96839.13
2022-10-08T00:16:26.725Z,96832.34
2022-10-08T00:18:58.968Z,96828.97
2022-10-08T00:21:29.801Z,96828.97
2022-10-08T00:23:58.615Z,96838.41
2022-10-08T00:26:28.658Z,96824.91
2022-10-08T00:28:59.924Z,96816.50
2022-10-08T00:31:32.338Z,96821.63
2022-10-08T00:34:07.986Z,96811.47
2022-10-08T00:36:37.493Z,96805.66
2022-10-08T00:39:08.712Z,96793.88
2022-10-08T00:41:38.806Z,96783.97
2022-10-08T00:44:39.867Z,96768.81
2022-10-08T00:47:16.156Z,96761.34
2022-10-08T00:49:45.882Z,96751.34
2022-10-08T00:52:13.942Z,96743.75
2022-10-08T00:54:41.968Z,96743.06
2022-10-08T00:57:10.033Z,96742.25
2022-10-08T00:59:39.035Z,96732.91
2022-10-08T01:02:08.310Z,96729.56
2022-10-08T01:04:37.520Z,96729.66
2022-10-08T01:07:13.925Z,96723.81
2022-10-08T01:09:46.125Z,96722.31
2022-10-08T01:12:23.924Z,96707.88
2022-10-08T01:14:59.445Z,96708.81
2022-10-08T01:17:35.097Z,96706.25
2022-10-08T01:20:24.322Z,96707.19
2022-10-08T01:23:11.435Z,96698.66
2022-10-08T01:25:53.760Z,96694.56
2022-10-08T01:28:30.596Z,96689.56
2022-10-08T01:31:05.867Z,96680.25
2022-10-08T01:33:40.681Z,96688.75
2022-10-08T01:36:11.832Z,96694.56
2022-10-08T01:38:43.367Z,96714.84
2022-10-08T01:41:16.284Z,96712.28
2022-10-08T01:43:50.952Z,96713.94
2022-10-08T01:46:24.570Z,96730.00
2022-10-08T01:48:57.697Z,96728.94
2022-10-08T01:51:36.431Z,96731.63
2022-10-08T01:54:08.083Z,96735.00
2022-10-08T01:56:39.635Z,96736.75
2022-10-08T01:59:13.020Z,96733.38
2022-10-08T02:01:52.129Z,96745.13
2022-10-08T02:04:37.537Z,96739.19
2022-10-08T02:07:09.357Z,96734.19
2022-10-08T02:09:40.685Z,96736.75
2022-10-08T02:12:09.569Z,96723.34
2022-10-08T02:14:41.390Z,96725.91
2022-10-08T02:17:23.034Z,96717.63
2022-10-08T02:19:56.473Z,96710.06
2022-10-08T02:22:30.491Z,96705.06
2022-10-08T02:25:06.427Z,96690.00
2022-10-08T02:27:44.507Z,96673.25
2022-10-08T02:30:14.565Z,96669.84
2022-10-08T02:32:51.554Z,96682.44
2022-10-08T02:35:25.354Z,96710.25
2022-10-08T02:37:59.563Z,96742.09
2022-10-08T02:40:30.416Z,96771.34
2022-10-08T02:43:06.009Z,96780.66
2022-10-08T02:45:42.407Z,96773.09
2022-10-08T02:48:17.545Z,96774.03
2022-10-08T02:50:48.752Z,96751.28
2022-10-08T02:53:19.670Z,96749.66
2022-10-08T02:55:55.398Z,96756.41
2022-10-08T02:58:26.342Z,96770.66
2022-10-08T03:01:00.463Z,96795.72
2022-10-08T03:03:33.591Z,96820.16
2022-10-08T03:06:03.958Z,96815.84
2022-10-08T03:08:34.296Z,96817.72
2022-10-08T03:11:02.240Z,96806.78
2022-10-08T03:13:31.534Z,96794.16
2022-10-08T03:16:00.954Z,96791.84
2022-10-08T03:18:28.868Z,96769.09
2022-10-08T03:20:58.272Z,96760.03
2022-10-08T03:23:27.347Z,96744.06
2022-10-08T03:25:55.172Z,96735.66
2022-10-08T03:28:23.019Z,96734.84
2022-10-08T03:30:51.005Z,96731.47
2022-10-08T03:33:20.192Z,96728.91
2022-10-08T03:35:48.333Z,96737.41
2022-10-08T03:38:16.867Z,96739.03
2022-10-08T03:40:45.152Z,96745.78
2022-10-08T03:43:12.915Z,96760.97
2022-10-08T03:45:40.710Z,96779.34
2022-10-08T03:48:08.544Z,96806.28
2022-10-08T03:50:37.748Z,96818.78
2022-10-08T03:53:05.492Z,96834.72
2022-10-08T03:55:36.508Z,96849.78
2022-10-08T03:58:04.331Z,96879.38
2022-10-08T04:00:32.182Z,96896.88
2022-10-08T04:03:00.619Z,96911.94
2022-10-08T04:05:28.427Z,96926.13
2022-10-08T04:07:57.623Z,96948.06
2022-10-08T04:10:25.558Z,96968.25
2022-10-08T04:12:53.477Z,96986.81
2022-10-08T04:15:21.267Z,96995.19
2022-10-08T04:17:49.059Z,97003.50
2022-10-08T04:20:16.866Z,97014.47
2022-10-08T04:22:44.983Z,97017.03
2022-10-08T04:25:14.513Z,97011.19
2022-10-08T04:27:42.473Z,96996.00
2022-10-08T04:30:11.332Z,96995.31
2022-10-08T04:32:39.121Z,96985.16
2022-10-08T04:38:00.177Z,96961.72
2022-10-08T04:40:29.672Z,96957.41
2022-10-08T04:42:57.416Z,96951.56
2022-10-08T04:45:25.180Z,96955.06
2022-10-08T04:47:52.961Z,96944.91
2022-10-08T04:50:20.742Z,96937.44
2022-10-08T04:52:49.275Z,96935.00
2022-10-08T04:55:17.407Z,96918.19
2022-10-08T04:57:46.706Z,96909.09
2022-10-08T05:00:18.444Z,96898.94
2022-10-08T05:02:47.291Z,96892.41
2022-10-08T05:05:15.537Z,96877.22
2022-10-08T05:07:43.720Z,96863.84
2022-10-08T05:10:11.724Z,96848.78
2022-10-08T05:12:39.515Z,96842.13
2022-10-08T05:15:10.057Z,96824.53
2022-10-08T05:17:37.976Z,96802.53
2022-10-08T05:20:06.464Z,96805.31
2022-10-08T05:22:37.311Z,96792.72
2022-10-08T05:25:05.799Z,96782.59
2022-10-08T05:27:33.576Z,96778.41
2022-10-08T05:30:02.376Z,96767.53
2022-10-08T05:32:31.612Z,96760.91
2022-10-08T05:34:59.524Z,96752.53
2022-10-08T05:37:27.321Z,96749.16
2022-10-08T05:39:55.172Z,96746.66
2022-10-08T05:42:22.997Z,96745.03
2022-10-08T05:44:50.784Z,96737.38
2022-10-08T05:47:18.566Z,96732.47
2022-10-08T05:49:47.896Z,96725.72
2022-10-08T05:52:15.666Z,96722.44
2022-10-08T05:54:43.952Z,96715.81
2022-10-08T05:57:11.730Z,96707.31
2022-10-08T05:59:39.505Z,96709.88
2022-10-08T06:02:10.718Z,96714.06
2022-10-08T06:04:38.652Z,96723.38
2022-10-08T06:10:00.189Z,96755.19
2022-10-08T06:12:28.354Z,96790.38
2022-10-08T06:14:56.176Z,96829.88
2022-10-08T06:17:24.020Z,96855.78
2022-10-08T06:19:51.916Z,96885.16
2022-10-08T06:22:21.026Z,96911.84
2022-10-08T06:24:48.861Z,96959.00
2022-10-08T06:27:16.672Z,96995.97
2022-10-08T06:29:44.653Z,97021.06
2022-10-08T06:32:12.444Z,97052.22
2022-10-08T06:34:42.085Z,97082.44
2022-10-08T06:37:09.870Z,97129.59
2022-10-08T06:39:39.064Z,97166.50
2022-10-08T06:42:06.981Z,97210.31
2022-10-08T06:44:38.373Z,97246.41
2022-10-08T06:47:06.367Z,97280.88
2022-10-08T06:49:34.131Z,97315.38
2022-10-08T06:52:01.963Z,97347.28
2022-10-08T06:54:29.699Z,97383.41
2022-10-08T06:56:59.145Z,97428.06
2022-10-08T06:59:26.933Z,97475.34
2022-10-08T07:01:54.840Z,97522.50
2022-10-08T07:04:22.641Z,97561.25
2022-10-08T07:06:50.440Z,97593.22
2022-10-08T07:09:18.221Z,97626.13
2022-10-08T07:11:46.395Z,97655.63
2022-10-08T07:14:15.759Z,97699.53
2022-10-08T07:16:43.574Z,97728.22
2022-10-08T07:19:11.478Z,97750.16
2022-10-08T07:21:40.475Z,97780.41
2022-10-08T07:24:08.338Z,97810.88
2022-10-08T07:26:36.184Z,97837.13
2022-10-08T07:29:07.676Z,97869.13
2022-10-08T07:31:38.352Z,97897.03
2022-10-08T07:34:08.622Z,97912.16
2022-10-08T07:36:36.796Z,97940.19
2022-10-08T07:39:07.119Z,97960.38
2022-10-08T07:41:35.821Z,97983.16
2022-10-08T07:44:04.280Z,98028.78
2022-10-08T07:46:33.991Z,98079.38
2022-10-08T07:49:04.560Z,98125.97
2022-10-08T07:51:34.107Z,98149.59
2022-10-08T07:54:03.199Z,98175.06
2022-10-08T07:56:31.833Z,98181.03
2022-10-08T07:59:00.566Z,98174.13
2022-10-08T08:01:30.447Z,98171.56
2022-10-08T08:04:00.108Z,98185.25
2022-10-08T08:06:30.892Z,98182.59
2022-10-08T08:09:00.442Z,98199.63
2022-10-08T08:11:28.833Z,98210.63
2022-10-08T08:13:57.171Z,98219.91
2022-10-08T08:16:29.139Z,98247.88
2022-10-08T08:18:59.553Z,98258.81
2022-10-08T08:21:30.656Z,98273.19
2022-10-08T08:24:00.677Z,98278.34
2022-10-08T08:26:32.778Z,98286.91
2022-10-08T08:29:03.662Z,98286.91
2022-10-08T08:31:33.383Z,98280.91
2022-10-08T08:34:03.424Z,98280.91
2022-10-08T08:36:34.963Z,98285.25
2022-10-08T08:39:04.934Z,98290.31
2022-10-08T08:41:50.937Z,98293.59
2022-10-08T08:44:23.146Z,98305.47
2022-10-08T08:46:57.414Z,98310.63
2022-10-08T08:49:29.693Z,98319.09
2022-10-08T08:52:01.102Z,98321.66
2022-10-08T08:54:29.047Z,98327.66
2022-10-08T08:56:57.127Z,98340.38
2022-10-08T08:59:28.393Z,98352.94
2022-10-08T09:02:00.478Z,98374.13
2022-10-08T09:04:45.033Z,98390.22
2022-10-08T09:07:19.697Z,98407.25
2022-10-08T09:09:52.714Z,98410.47
2022-10-08T09:12:23.076Z,98427.50
2022-10-08T09:14:54.776Z,98439.38
2022-10-08T09:17:29.098Z,98457.13
2022-10-08T09:19:57.328Z,98472.44
2022-10-08T09:22:28.637Z,98483.47
2022-10-08T09:25:00.347Z,98497.09
2022-10-08T09:27:46.937Z,98500.31
2022-10-08T09:30:36.613Z,98520.84
2022-10-08T09:33:18.376Z,98519.00
2022-10-08T09:35:49.272Z,98535.25
2022-10-08T09:38:23.309Z,98550.63
2022-10-08T09:41:02.233Z,98553.00
2022-10-08T09:43:30.544Z,98554.75
2022-10-08T09:45:59.061Z,98563.97
2022-10-08T09:48:28.608Z,98573.38
2022-10-08T09:51:00.631Z,98586.88
2022-10-08T09:53:39.750Z,98598.78
2022-10-08T09:56:09.588Z,98615.84
2022-10-08T09:58:49.120Z,98626.88
2022-10-08T10:01:19.024Z,98631.03
2022-10-08T10:03:52.218Z,98648.81
2022-10-08T10:06:33.212Z,98672.69
2022-10-08T10:09:07.252Z,98682.00
2022-10-08T10:11:41.760Z,98693.91
2022-10-08T10:14:20.160Z,98717.56
2022-10-08T10:16:54.250Z,98725.16
2022-10-08T10:19:26.735Z,98756.69
2022-10-08T10:21:59.677Z,98767.66
2022-10-08T10:24:42.670Z,98794.03
2022-10-08T10:27:14.887Z,98816.09
2022-10-08T10:29:54.729Z,98848.28
2022-10-08T10:32:31.822Z,98871.19
2022-10-08T10:35:06.625Z,98900.03
2022-10-08T10:37:41.487Z,98911.03
2022-10-08T10:40:30.672Z,98926.34
2022-10-08T10:43:13.496Z,98932.34
2022-10-08T10:45:47.855Z,98940.84
2022-10-08T10:48:15.940Z,98962.09
2022-10-08T10:50:53.698Z,98979.91
2022-10-08T10:53:31.585Z,99008.91
2022-10-08T10:56:08.162Z,99023.22
2022-10-08T10:58:51.905Z,99076.78
2022-10-08T11:01:32.441Z,99129.47
2022-10-08T11:04:08.770Z,99173.63
2022-10-08T11:07:00.636Z,99251.94
2022-10-08T11:09:36.652Z,99334.53
2022-10-08T11:12:18.737Z,99402.66
2022-10-08T11:15:00.105Z,99470.69
2022-10-08T11:17:43.283Z,99526.13
2022-10-08T11:20:29.476Z,99595.25
2022-10-08T11:23:05.374Z,99642.13
2022-10-08T11:26:02.096Z,99674.41
2022-10-08T11:28:38.564Z,99722.13
2022-10-08T11:31:12.257Z,99775.09
2022-10-08T11:33:41.018Z,99846.88
2022-10-08T11:36:19.981Z,99907.53
2022-10-08T11:38:55.343Z,99944.13
2022-10-08T11:41:28.634Z,100001.31
2022-10-08T11:44:01.312Z,100084.28
2022-10-08T11:46:31.427Z,100149.31
2022-10-08T11:49:01.668Z,100219.31
2022-10-08T11:51:39.979Z,100285.28
2022-10-08T11:54:13.024Z,100321.19
2022-10-08T11:56:43.947Z,100342.44
2022-10-08T11:59:30.102Z,100395.63
2022-10-08T12:02:00.621Z,100431.63
2022-10-08T12:04:32.115Z,100433.41
2022-10-08T12:07:18.088Z,100433.31
2022-10-08T12:10:34.296Z,100316.91
2022-10-08T12:13:26.384Z,100163.72
2022-10-08T12:16:04.827Z,100053.41
2022-10-08T12:18:51.654Z,99976.50
2022-10-08T12:21:50.242Z,99839.91
2022-10-08T12:24:56.248Z,99683.03
2022-10-08T12:27:33.501Z,99508.06
2022-10-08T12:30:04.172Z,99424.69
2022-10-08T12:32:53.590Z,99362.50
2022-10-08T12:35:23.365Z,99329.28
2022-10-08T12:38:10.060Z,99278.31
2022-10-08T12:40:42.816Z,99248.44
2022-10-08T12:43:25.648Z,99197.38
2022-10-08T12:46:02.325Z,99178.56
2022-10-08T12:48:40.703Z,99189.72
2022-10-08T12:51:22.815Z,99168.41
2022-10-08T12:53:50.973Z,99193.97
2022-10-08T12:56:28.492Z,99261.19
2022-10-08T12:58:58.016Z,99379.50
2022-10-08T13:01:26.798Z,99481.63
2022-10-08T13:04:17.228Z,99590.72
2022-10-08T13:06:48.689Z,99665.81
2022-10-08T13:09:30.377Z,99725.50
2022-10-08T13:12:03.912Z,99783.47
2022-10-08T13:14:33.767Z,99798.84
2022-10-08T13:17:02.223Z,99792.81
2022-10-08T13:19:34.559Z,99794.59
2022-10-08T13:22:05.125Z,99826.13
2022-10-08T13:24:40.046Z,99892.72
2022-10-08T13:27:23.239Z,99933.66
2022-10-08T13:29:51.308Z,100000.34
2022-10-08T13:32:22.718Z,100053.28
2022-10-08T13:34:54.958Z,100099.47
2022-10-08T13:37:29.457Z,100162.66
2022-10-08T13:39:59.931Z,100221.75
2022-10-08T13:42:30.829Z,100247.34
2022-10-08T13:45:00.394Z,100295.22
2022-10-08T13:47:29.271Z,100273.00
2022-10-08T13:50:02.102Z,100290.09
2022-10-08T13:52:33.166Z,100261.84
2022-10-08T13:55:03.343Z,100253.19
2022-10-08T13:57:31.353Z,100272.09
2022-10-08T13:59:59.175Z,100304.53
2022-10-08T14:02:27.231Z,100300.34
2022-10-08T14:04:55.020Z,100300.34
2022-10-08T14:07:27.148Z,100298.59
2022-10-08T14:09:56.393Z,100300.34
2022-10-08T14:12:33.211Z,100283.16
2022-10-08T14:15:02.154Z,100303.72
2022-10-08T14:17:33.182Z,100329.38
2022-10-08T14:20:01.027Z,100353.31
2022-10-08T14:22:32.216Z,100381.50
2022-10-08T14:25:00.032Z,100381.63
2022-10-08T14:27:27.797Z,100384.94
2022-10-08T14:29:55.637Z,100370.31
2022-10-08T14:32:27.000Z,100360.94
2022-10-08T14:34:55.059Z,100326.69
2022-10-08T14:37:22.938Z,100253.13
2022-10-08T14:39:52.096Z,100156.44
2022-10-08T14:42:22.819Z,100027.38
2022-10-08T14:44:51.845Z,99908.72
2022-10-08T14:47:19.707Z,99817.34
2022-10-08T14:49:47.557Z,99722.56
2022-10-08T14:52:15.370Z,99673.06
2022-10-08T14:54:43.580Z,99603.19
2022-10-08T14:57:14.372Z,99562.25
2022-10-08T14:59:42.593Z,99530.66
2022-10-08T15:02:11.012Z,99505.09
2022-10-08T15:04:38.936Z,99507.69
2022-10-08T15:07:07.081Z,99497.47
2022-10-08T15:09:37.140Z,99480.38
2022-10-08T15:12:05.164Z,99463.41
2022-10-08T15:14:38.167Z,99447.97
2022-10-08T15:17:06.376Z,99432.66
2022-10-08T15:19:36.996Z,99418.16
2022-10-08T15:22:05.730Z,99412.25
2022-10-08T15:24:33.554Z,99413.06
2022-10-08T15:27:01.451Z,99394.28
2022-10-08T15:29:29.317Z,99376.41
2022-10-08T15:31:58.753Z,99356.59
2022-10-08T15:34:26.654Z,99368.72
2022-10-08T15:36:55.033Z,99357.63
2022-10-08T15:39:25.925Z,99338.00
2022-10-08T15:41:54.480Z,99320.16
2022-10-08T15:44:24.507Z,99321.91
2022-10-08T15:46:59.898Z,99298.78
2022-10-08T15:49:31.065Z,99256.34
2022-10-08T15:51:59.224Z,99245.31
2022-10-08T15:54:27.402Z,99223.16
2022-10-08T15:56:55.175Z,99203.53
2022-10-08T15:59:23.041Z,99184.84
2022-10-08T16:01:50.807Z,99163.63
2022-10-08T16:04:20.117Z,99129.59
2022-10-08T16:06:47.981Z,99097.31
2022-10-08T16:09:17.190Z,99031.00
2022-10-08T16:11:45.770Z,98994.53
2022-10-08T16:14:15.726Z,98951.25
2022-10-08T16:16:44.093Z,98913.00
2022-10-08T16:19:16.322Z,98863.72
2022-10-08T16:21:46.687Z,98827.28
2022-10-08T16:24:14.793Z,98788.22
2022-10-08T16:26:43.421Z,98748.41
2022-10-08T16:29:13.507Z,98715.28
2022-10-08T16:31:42.800Z,98676.22
2022-10-08T16:34:14.684Z,98641.44
2022-10-08T16:36:43.425Z,98611.78
2022-10-08T16:39:14.267Z,98567.84
2022-10-08T16:41:42.317Z,98527.84
2022-10-08T16:44:13.987Z,98494.97
2022-10-08T16:46:43.920Z,98450.03
2022-10-08T16:49:22.726Z,98425.47
2022-10-08T16:51:52.598Z,98396.66
2022-10-08T16:54:22.523Z,98371.34
2022-10-08T16:56:50.747Z,98354.31
2022-10-08T16:59:20.625Z,98329.84
2022-10-08T17:01:50.678Z,98297.66
2022-10-08T17:04:19.770Z,98275.75
2022-10-08T17:06:47.762Z,98247.78
2022-10-08T17:09:15.792Z,98219.00
2022-10-08T17:11:45.884Z,98203.00
2022-10-08T17:14:14.056Z,98175.06
2022-10-08T17:16:43.435Z,98151.34
2022-10-08T17:19:11.948Z,98135.34
2022-10-08T17:21:39.879Z,98123.59
2022-10-08T17:24:07.954Z,98109.25
2022-10-08T17:26:35.986Z,98082.06
2022-10-08T17:29:06.683Z,98063.50
2022-10-08T17:31:35.204Z,98043.28
2022-10-08T17:34:04.137Z,98011.97
2022-10-08T17:36:33.824Z,97990.13
2022-10-08T17:39:02.982Z,97975.81
2022-10-08T17:41:32.446Z,97952.22
2022-10-08T17:44:03.368Z,97925.94
2022-10-08T17:46:34.849Z,97898.88
2022-10-08T17:49:03.111Z,97877.84
2022-10-08T17:51:31.807Z,97852.56
2022-10-08T17:54:02.245Z,97834.84
2022-10-08T17:56:30.501Z,97811.25
2022-10-08T17:58:59.182Z,97783.38
2022-10-08T18:01:30.765Z,97756.41
2022-10-08T18:04:01.762Z,97732.84
2022-10-08T18:06:31.052Z,97712.72
2022-10-08T18:09:00.207Z,97697.47
2022-10-08T18:11:29.715Z,97677.31
2022-10-08T18:13:57.860Z,97659.63
2022-10-08T18:16:26.277Z,97631.78
2022-10-08T18:18:54.211Z,97612.44
2022-10-08T18:21:23.729Z,97598.97
2022-10-08T18:23:52.109Z,97582.81
2022-10-08T18:26:21.382Z,97576.97
2022-10-08T18:28:51.025Z,97582.94
2022-10-08T18:31:23.589Z,97573.69
2022-10-08T18:33:55.312Z,97546.56
2022-10-08T18:36:26.161Z,97529.91
2022-10-08T18:38:56.457Z,97514.78
2022-10-08T18:41:30.512Z,97490.44
2022-10-08T18:44:00.727Z,97464.22
2022-10-08T18:46:29.410Z,97442.25
2022-10-08T18:48:57.493Z,97426.34
2022-10-08T18:51:28.459Z,97414.53
2022-10-08T18:53:58.394Z,97403.66
2022-10-08T18:56:28.869Z,97386.91
2022-10-08T18:58:57.667Z,97364.97
2022-10-08T19:01:27.330Z,97346.47
2022-10-08T19:03:56.973Z,97327.06
2022-10-08T19:06:29.442Z,97313.75
2022-10-08T19:08:58.376Z,97293.50
2022-10-08T19:11:30.293Z,97273.28
2022-10-08T19:13:58.267Z,97248.06
2022-10-08T19:16:26.121Z,97223.66
2022-10-08T19:18:56.112Z,97211.25
2022-10-08T19:21:26.426Z,97194.31
2022-10-08T19:23:54.329Z,97180.88
2022-10-08T19:26:25.901Z,97162.41
2022-10-08T19:28:55.146Z,97140.50
2022-10-08T19:31:25.227Z,97121.22
2022-10-08T19:33:57.252Z,97114.56
2022-10-08T19:36:29.332Z,97103.59
2022-10-08T19:39:00.432Z,97091.91
2022-10-08T19:41:28.891Z,97070.06
2022-10-08T19:43:57.713Z,97055.03
2022-10-08T19:46:27.453Z,97041.47
2022-10-08T19:48:57.191Z,97043.22
2022-10-08T19:51:31.067Z,97037.41
2022-10-08T19:54:00.391Z,97038.31
2022-10-08T19:56:29.421Z,97027.38
2022-10-08T19:58:57.244Z,97014.63
2022-10-08T20:01:28.196Z,97005.53
2022-10-08T20:03:57.246Z,96996.22
2022-10-08T20:06:28.575Z,96979.41
2022-10-08T20:08:57.768Z,96968.56
2022-10-08T20:11:26.566Z,96956.88
2022-10-08T20:13:55.511Z,96944.38
2022-10-08T20:16:25.458Z,96922.47
2022-10-08T20:18:55.080Z,96912.44
2022-10-08T20:24:18.229Z,96883.06
2022-10-08T20:26:48.935Z,96874.78
2022-10-08T20:29:19.191Z,96864.75
2022-10-08T20:31:49.648Z,96846.09
2022-10-08T20:34:19.317Z,96841.34
2022-10-08T20:36:48.294Z,96828.72
2022-10-08T20:39:19.743Z,96811.97
2022-10-08T20:41:48.435Z,96796.78
2022-10-08T20:44:16.712Z,96801.00
2022-10-08T20:46:44.957Z,96801.00
2022-10-08T20:49:14.221Z,96797.63
2022-10-08T20:51:43.940Z,96800.16
2022-10-08T20:54:13.899Z,96797.72
2022-10-08T20:56:44.103Z,96793.53
2022-10-08T20:59:16.117Z,96788.53
2022-10-08T21:01:43.959Z,96786.09
2022-10-08T21:04:11.860Z,96769.06
2022-10-08T21:06:41.995Z,96768.38
2022-10-08T21:09:10.356Z,96765.91
2022-10-08T21:11:39.043Z,96756.59
2022-10-08T21:14:09.789Z,96754.25
2022-10-08T21:16:40.048Z,96745.88
2022-10-08T21:19:12.363Z,96740.88
2022-10-08T21:21:40.941Z,96735.75
2022-10-08T21:24:09.316Z,96735.75
2022-10-08T21:26:39.413Z,96729.94
2022-10-08T21:29:10.233Z,96723.28
2022-10-08T21:31:40.468Z,96708.13
2022-10-08T21:34:08.819Z,96688.09
2022-10-08T21:36:38.972Z,96679.72
2022-10-08T21:39:08.531Z,96662.13
2022-10-08T21:41:37.833Z,96649.56
2022-10-08T21:44:08.861Z,96632.78
2022-10-08T21:46:38.297Z,96616.13
2022-10-08T21:49:08.071Z,96602.75
2022-10-08T21:51:36.669Z,96583.50
2022-10-08T21:54:06.966Z,96559.09
2022-10-08T21:56:36.682Z,96551.63
2022-10-08T21:59:06.551Z,96535.81
2022-10-08T22:01:40.118Z,96524.16
2022-10-08T22:06:38.955Z,96483.94
2022-10-08T22:09:08.935Z,96470.53
2022-10-08T22:11:36.693Z,96447.16
2022-10-08T22:14:04.528Z,96424.50
2022-10-08T22:16:32.512Z,96418.91
2022-10-08T22:19:01.174Z,96404.63
2022-10-08T22:21:29.182Z,96385.31
2022-10-08T22:23:58.362Z,96366.03
2022-10-08T22:26:30.035Z,96352.78
2022-10-08T22:28:58.316Z,96339.31
2022-10-08T22:31:28.038Z,96328.47
2022-10-08T22:33:56.584Z,96315.13
2022-10-08T22:36:26.091Z,96303.50
2022-10-08T22:38:56.013Z,96290.16
2022-10-08T22:41:27.244Z,96281.75
2022-10-08T22:43:55.428Z,96283.50
2022-10-08T22:46:25.805Z,96280.16
2022-10-08T22:48:57.124Z,96274.22
2022-10-08T22:51:24.950Z,96278.53
2022-10-08T22:53:53.121Z,96266.00
2022-10-08T22:56:22.580Z,96262.63
2022-10-08T22:58:53.012Z,96266.78
2022-10-08T23:01:23.122Z,96256.66
2022-10-08T23:03:51.678Z,96252.63
2022-10-08T23:06:21.996Z,96255.97
2022-10-08T23:08:54.494Z,96263.63
2022-10-08T23:11:22.518Z,96263.63
2022-10-08T23:13:52.552Z,96257.03
2022-10-08T23:16:21.213Z,96238.47
2022-10-08T23:18:55.751Z,96227.41
2022-10-08T23:21:29.216Z,96224.97
2022-10-08T23:23:57.713Z,96228.56
2022-10-08T23:26:27.033Z,96219.28
2022-10-08T23:28:57.927Z,96219.28
2022-10-08T23:31:27.673Z,96208.38
2022-10-08T23:33:57.301Z,96207.66
2022-10-08T23:36:27.388Z,96193.38
2022-10-08T23:38:56.402Z,96179.13
2022-10-08T23:41:24.924Z,96175.03
2022-10-08T23:43:54.101Z,96156.59
2022-10-08T23:46:25.254Z,96154.97
2022-10-08T23:48:53.705Z,96150.06
2022-10-08T23:51:23.117Z,96140.91
2022-10-08T23:53:52.084Z,96122.56
2022-10-08T23:56:20.676Z,96109.13
2022-10-08T23:58:49.416Z,96106.91
